createdAt,value
2023-09-28T00:01:38.757Z,15.10
2023-09-28T00:04:07.871Z,14.90
2023-09-28T00:06:36.317Z,18.70
2023-09-28T00:09:04.750Z,14.70
2023-09-28T00:11:32.400Z,14.50
2023-09-28T00:14:00.061Z,17.20
2023-09-28T00:16:27.902Z,15.70
2023-09-28T00:18:56.892Z,16.40
2023-09-28T00:21:24.980Z,15.40
2023-09-28T00:23:54.419Z,15.80
2023-09-28T00:26:23.646Z,15.90
2023-09-28T00:28:52.203Z,14.70
2023-09-28T00:31:20.705Z,18.40
2023-09-28T00:33:48.453Z,15.70
2023-09-28T00:36:16.278Z,16.10
2023-09-28T00:38:43.990Z,16.60
2023-09-28T00:41:11.708Z,19.20
2023-09-28T00:43:39.376Z,16.00
2023-09-28T00:46:07.025Z,15.50
2023-09-28T00:48:34.658Z,16.10
2023-09-28T00:51:02.702Z,15.40
2023-09-28T00:53:31.045Z,14.70
2023-09-28T00:55:58.777Z,15.80
2023-09-28T00:58:26.948Z,17.30
2023-09-28T01:00:54.740Z,15.60
2023-09-28T01:03:22.495Z,15.10
2023-09-28T01:05:51.015Z,14.70
2023-09-28T01:08:22.777Z,12.70
2023-09-28T01:10:51.426Z,14.60
2023-09-28T01:13:25.254Z,15.10
2023-09-28T01:15:53.341Z,13.10
2023-09-28T01:18:21.457Z,10.90
2023-09-28T01:20:49.387Z,12.10
2023-09-28T01:23:17.166Z,11.70
2023-09-28T01:25:49.033Z,12.20
2023-09-28T01:28:20.065Z,10.20
2023-09-28T01:30:48.105Z,10.00
2023-09-28T01:33:16.250Z,10.30
2023-09-28T01:35:44.029Z,11.80
2023-09-28T01:38:14.392Z,12.10
2023-09-28T01:40:42.237Z,10.70
2023-09-28T01:43:10.035Z,10.20
2023-09-28T01:45:37.652Z,10.70
2023-09-28T01:48:05.494Z,10.70
2023-09-28T01:50:33.353Z,11.00
2023-09-28T01:53:01.154Z,9.80
2023-09-28T01:55:28.987Z,11.80
2023-09-28T01:57:57.019Z,12.50
2023-09-28T02:00:26.572Z,12.60
2023-09-28T02:02:54.478Z,10.10
2023-09-28T02:05:23.110Z,12.70
2023-09-28T02:07:50.856Z,12.40
2023-09-28T02:10:18.947Z,12.50
2023-09-28T02:12:46.688Z,10.40
2023-09-28T02:15:17.536Z,11.50
2023-09-28T02:17:48.217Z,10.90
2023-09-28T02:20:17.401Z,10.10
2023-09-28T02:22:46.662Z,10.50
2023-09-28T02:25:16.690Z,10.40
2023-09-28T02:27:44.737Z,12.60
2023-09-28T02:30:13.434Z,8.30
2023-09-28T02:32:41.475Z,9.60
2023-09-28T02:35:10.665Z,9.90
2023-09-28T02:37:38.375Z,10.40
2023-09-28T02:40:06.732Z,9.90
2023-09-28T02:42:35.213Z,11.40
2023-09-28T02:45:04.370Z,10.40
2023-09-28T02:47:32.249Z,10.30
2023-09-28T02:50:00.236Z,11.10
2023-09-28T02:52:28.121Z,12.00
2023-09-28T02:54:56.021Z,13.50
2023-09-28T02:57:23.689Z,13.00
2023-09-28T02:59:51.318Z,13.50
2023-09-28T03:02:19.748Z,12.10
2023-09-28T03:04:47.629Z,11.60
2023-09-28T03:07:15.290Z,12.40
2023-09-28T03:09:42.996Z,11.50
2023-09-28T03:12:10.659Z,12.30
2023-09-28T03:14:39.192Z,12.00
2023-09-28T03:17:06.929Z,11.50
2023-09-28T03:19:35.539Z,10.90
2023-09-28T03:22:03.322Z,10.20
2023-09-28T03:24:31.220Z,11.30
2023-09-28T03:27:10.075Z,11.20
2023-09-28T03:29:38.744Z,12.90
2023-09-28T03:32:06.487Z,11.80
2023-09-28T03:34:34.225Z,12.00
2023-09-28T03:37:02.232Z,16.00
2023-09-28T03:39:30.034Z,22.60
2023-09-28T03:41:57.702Z,12.60
2023-09-28T03:44:25.401Z,10.80
2023-09-28T03:46:53.101Z,11.10
2023-09-28T03:49:20.794Z,9.00
2023-09-28T03:51:48.605Z,9.50
2023-09-28T03:54:16.870Z,11.20
2023-09-28T03:56:44.663Z,10.10
2023-09-28T03:59:12.393Z,10.50
2023-09-28T04:01:46.196Z,9.50
2023-09-28T04:04:14.651Z,10.10
2023-09-28T04:06:42.312Z,11.80
2023-09-28T04:09:09.961Z,9.60
2023-09-28T04:11:38.574Z,11.40
2023-09-28T04:14:09.681Z,13.60
2023-09-28T04:16:38.732Z,10.40
2023-09-28T04:19:07.862Z,13.70
2023-09-28T04:21:35.547Z,11.90
2023-09-28T04:24:03.478Z,8.70
2023-09-28T04:26:31.146Z,11.60
2023-09-28T04:29:01.343Z,10.80
2023-09-28T04:31:28.941Z,11.40
2023-09-28T04:33:58.643Z,11.30
2023-09-28T04:36:26.936Z,12.10
2023-09-28T04:38:54.716Z,12.80
2023-09-28T04:41:22.359Z,13.60
2023-09-28T04:43:50.645Z,13.50
2023-09-28T04:46:18.413Z,15.20
2023-09-28T04:48:46.189Z,12.40
2023-09-28T04:51:14.440Z,25.80
2023-09-28T04:53:42.958Z,15.90
2023-09-28T04:56:13.494Z,18.20
2023-09-28T04:58:41.322Z,12.20
2023-09-28T05:01:09.321Z,13.70
2023-09-28T05:03:37.089Z,14.30
2023-09-28T05:06:06.262Z,11.60
2023-09-28T05:08:34.592Z,12.80
2023-09-28T05:11:02.685Z,12.10
2023-09-28T05:13:33.774Z,12.40
2023-09-28T05:16:01.512Z,11.60
2023-09-28T05:18:30.767Z,10.00
2023-09-28T05:20:58.434Z,9.80
2023-09-28T05:23:27.027Z,15.20
2023-09-28T05:25:54.970Z,9.20
2023-09-28T05:28:22.752Z,10.90
2023-09-28T05:30:50.758Z,10.20
2023-09-28T05:33:19.296Z,11.00
2023-09-28T05:35:47.360Z,11.60
2023-09-28T05:38:15.305Z,12.50
2023-09-28T05:40:43.249Z,9.80
2023-09-28T05:43:10.976Z,9.50
2023-09-28T05:45:39.677Z,8.10
2023-09-28T05:48:07.574Z,9.90
2023-09-28T05:50:35.543Z,9.90
2023-09-28T05:53:06.436Z,11.10
2023-09-28T05:55:34.221Z,10.70
2023-09-28T05:58:02.864Z,11.30
2023-09-28T06:00:30.589Z,11.70
2023-09-28T06:03:00.626Z,11.90
2023-09-28T06:05:29.542Z,12.60
2023-09-28T06:07:57.148Z,11.40
2023-09-28T06:10:24.852Z,15.10
2023-09-28T06:12:53.143Z,10.10
2023-09-28T06:15:20.944Z,11.10
2023-09-28T06:17:48.655Z,10.30
2023-09-28T06:20:18.590Z,12.60
2023-09-28T06:22:46.452Z,12.40
2023-09-28T06:25:14.101Z,11.40
2023-09-28T06:27:42.350Z,11.70
2023-09-28T06:30:11.439Z,11.40
2023-09-28T06:32:39.356Z,10.30
2023-09-28T06:35:07.600Z,11.50
2023-09-28T06:37:35.653Z,10.10
2023-09-28T06:40:04.272Z,11.10
2023-09-28T06:42:37.190Z,9.90
2023-09-28T06:45:05.825Z,9.70
2023-09-28T06:47:46.537Z,10.30
2023-09-28T06:50:21.504Z,9.50
2023-09-28T06:52:51.853Z,10.80
2023-09-28T06:55:19.479Z,12.20
2023-09-28T06:57:47.824Z,10.40
2023-09-28T07:00:18.363Z,12.50
2023-09-28T07:02:49.049Z,13.00
2023-09-28T07:05:18.044Z,10.90
2023-09-28T07:07:46.772Z,10.90
2023-09-28T07:10:14.749Z,11.80
2023-09-28T07:12:42.649Z,12.50
2023-09-28T07:15:11.237Z,12.80
2023-09-28T07:17:38.963Z,13.20
2023-09-28T07:20:06.674Z,11.40
2023-09-28T07:22:34.434Z,12.30
2023-09-28T07:25:02.657Z,11.50
2023-09-28T07:27:33.673Z,11.60
2023-09-28T07:30:01.592Z,10.50
2023-09-28T07:32:31.301Z,10.10
2023-09-28T07:34:59.365Z,13.30
2023-09-28T07:37:27.576Z,12.70
2023-09-28T07:39:58.274Z,12.40
2023-09-28T07:42:26.108Z,14.00
2023-09-28T07:44:53.837Z,11.60
2023-09-28T07:47:21.692Z,11.80
2023-09-28T07:49:49.517Z,10.90
2023-09-28T07:52:17.799Z,12.10
2023-09-28T07:54:45.517Z,11.70
2023-09-28T07:57:13.859Z,13.40
2023-09-28T07:59:41.433Z,12.00
2023-09-28T08:02:12.450Z,11.70
2023-09-28T08:04:40.363Z,12.60
2023-09-28T08:07:08.501Z,11.90
2023-09-28T08:09:36.158Z,11.50
2023-09-28T08:12:04.991Z,12.90
2023-09-28T08:14:32.714Z,12.60
2023-09-28T08:17:00.613Z,12.40
2023-09-28T08:19:28.726Z,12.20
2023-09-28T08:21:57.435Z,12.90
2023-09-28T08:24:25.234Z,11.90
2023-09-28T08:26:54.944Z,12.30
2023-09-28T08:29:22.834Z,11.20
2023-09-28T08:31:50.958Z,12.50
2023-09-28T08:34:32.872Z,13.20
2023-09-28T08:37:06.453Z,12.80
2023-09-28T08:39:34.454Z,13.30
2023-09-28T08:42:02.089Z,13.40
2023-09-28T08:44:29.981Z,12.40
2023-09-28T08:46:57.996Z,14.50
2023-09-28T08:49:25.958Z,11.00
2023-09-28T08:51:53.684Z,13.70
2023-09-28T08:54:21.443Z,11.40
2023-09-28T08:56:50.203Z,13.70
2023-09-28T08:59:18.346Z,12.60
2023-09-28T09:01:45.942Z,11.50
2023-09-28T09:04:13.700Z,11.70
2023-09-28T09:06:43.306Z,12.00
2023-09-28T09:09:17.006Z,12.50
2023-09-28T09:11:44.681Z,13.10
2023-09-28T09:14:12.463Z,10.40
2023-09-28T09:16:40.156Z,10.10
2023-09-28T09:19:08.027Z,12.90
2023-09-28T09:21:38.192Z,11.30
2023-09-28T09:24:05.850Z,12.00
2023-09-28T09:26:33.602Z,9.60
2023-09-28T09:29:01.927Z,9.60
2023-09-28T09:31:30.215Z,8.80
2023-09-28T09:33:57.934Z,9.00
2023-09-28T09:36:26.129Z,10.60
2023-09-28T09:38:54.856Z,9.80
2023-09-28T09:41:22.980Z,9.00
2023-09-28T09:43:52.965Z,8.70
2023-09-28T09:46:20.806Z,7.80
2023-09-28T09:48:48.486Z,9.60
2023-09-28T09:51:16.673Z,9.90
2023-09-28T09:53:44.353Z,10.00
2023-09-28T09:56:12.425Z,8.10
2023-09-28T09:58:40.502Z,8.10
2023-09-28T10:01:08.423Z,8.50
2023-09-28T10:03:36.558Z,8.90
2023-09-28T10:06:04.624Z,9.40
2023-09-28T10:08:32.428Z,8.00
2023-09-28T10:11:00.280Z,8.10
2023-09-28T10:13:31.122Z,8.90
2023-09-28T10:16:01.884Z,7.90
2023-09-28T10:18:30.448Z,9.50
2023-09-28T10:20:58.060Z,9.30
2023-09-28T10:23:25.772Z,9.50
2023-09-28T10:25:53.349Z,9.20
2023-09-28T10:28:21.925Z,9.10
2023-09-28T10:30:49.732Z,6.90
2023-09-28T10:33:18.016Z,7.90
2023-09-28T10:35:46.001Z,7.20
2023-09-28T10:38:14.166Z,8.70
2023-09-28T10:40:50.310Z,6.20
2023-09-28T10:43:19.268Z,8.10
2023-09-28T10:45:46.934Z,8.60
2023-09-28T10:48:15.215Z,7.40
2023-09-28T10:50:46.198Z,8.80
2023-09-28T10:53:13.872Z,11.40
2023-09-28T10:55:42.424Z,8.60
2023-09-28T10:58:10.056Z,14.40
2023-09-28T11:00:38.556Z,10.00
2023-09-28T11:03:06.437Z,8.30
2023-09-28T11:05:34.634Z,7.20
2023-09-28T11:08:05.258Z,10.40
2023-09-28T11:10:33.341Z,11.70
2023-09-28T11:13:00.996Z,8.30
2023-09-28T11:15:30.980Z,7.50
2023-09-28T11:17:58.773Z,7.70
2023-09-28T11:20:26.543Z,6.80
2023-09-28T11:22:54.360Z,11.60
2023-09-28T11:25:39.132Z,9.10
2023-09-28T11:28:09.949Z,6.40
2023-09-28T11:30:40.736Z,7.70
2023-09-28T11:33:09.274Z,8.60
2023-09-28T11:35:39.818Z,7.50
2023-09-28T11:38:11.769Z,9.10
2023-09-28T11:40:39.913Z,6.40
2023-09-28T11:43:07.899Z,7.50
2023-09-28T11:45:36.484Z,7.90
2023-09-28T11:48:05.031Z,7.40
2023-09-28T11:50:32.942Z,8.20
2023-09-28T11:53:00.781Z,10.00
2023-09-28T11:55:28.724Z,7.40
2023-09-28T11:57:56.828Z,9.80
2023-09-28T12:00:25.721Z,9.70
2023-09-28T12:02:53.861Z,6.90
2023-09-28T12:05:22.443Z,8.50
2023-09-28T12:07:50.093Z,8.40
2023-09-28T12:10:19.252Z,15.90
2023-09-28T12:12:51.245Z,9.70
2023-09-28T12:15:19.309Z,7.80
2023-09-28T12:17:47.063Z,18.70
2023-09-28T12:20:15.365Z,7.70
2023-09-28T12:22:43.902Z,8.10
2023-09-28T12:25:11.726Z,9.30
2023-09-28T12:27:39.545Z,7.20
2023-09-28T12:30:07.367Z,9.60
2023-09-28T12:32:35.379Z,8.00
2023-09-28T12:35:03.809Z,7.20
2023-09-28T12:37:34.154Z,7.70
2023-09-28T12:40:05.158Z,6.10
2023-09-28T12:42:32.891Z,7.40
2023-09-28T12:45:00.531Z,8.30
2023-09-28T12:47:28.429Z,6.40
2023-09-28T12:49:56.374Z,8.40
2023-09-28T12:52:24.723Z,6.60
2023-09-28T12:54:52.903Z,6.30
2023-09-28T12:57:20.525Z,8.00
2023-09-28T12:59:48.169Z,7.50
2023-09-28T13:02:16.163Z,7.20
2023-09-28T13:04:44.189Z,8.70
2023-09-28T13:07:12.195Z,8.10
2023-09-28T13:09:39.886Z,9.00
2023-09-28T13:12:09.416Z,7.70
2023-09-28T13:14:37.291Z,8.20
2023-09-28T13:17:07.539Z,7.90
2023-09-28T13:19:37.675Z,8.10
2023-09-28T13:22:06.339Z,12.20
2023-09-28T13:24:35.562Z,6.70
2023-09-28T13:27:07.130Z,7.30
2023-09-28T13:29:35.196Z,7.30
2023-09-28T13:32:02.904Z,5.70
2023-09-28T13:34:30.674Z,7.40
2023-09-28T13:36:59.772Z,6.70
2023-09-28T13:39:37.819Z,6.60
2023-09-28T13:42:05.776Z,9.90
2023-09-28T13:44:34.614Z,9.20
2023-09-28T13:47:05.079Z,8.40
2023-09-28T13:49:33.112Z,9.30
2023-09-28T13:52:00.912Z,7.30
2023-09-28T13:54:29.012Z,7.90
2023-09-28T13:57:00.449Z,9.20
2023-09-28T13:59:28.133Z,8.40
2023-09-28T14:01:56.796Z,7.30
2023-09-28T14:04:24.983Z,8.20
2023-09-28T14:06:56.312Z,10.50
2023-09-28T14:09:29.108Z,11.70
2023-09-28T14:11:57.263Z,17.20
2023-09-28T14:14:25.747Z,9.60
2023-09-28T14:16:58.359Z,10.20
2023-09-28T14:19:30.852Z,8.40
2023-09-28T14:21:58.587Z,6.00
2023-09-28T14:24:30.349Z,8.10
2023-09-28T14:26:57.972Z,7.50
2023-09-28T14:29:25.825Z,7.20
2023-09-28T14:31:53.464Z,8.40
2023-09-28T14:34:21.027Z,8.20
2023-09-28T14:36:48.755Z,8.00
2023-09-28T14:39:16.608Z,8.30
2023-09-28T14:41:44.164Z,6.90
2023-09-28T14:44:12.615Z,8.90
2023-09-28T14:46:40.449Z,6.80
2023-09-28T14:49:08.769Z,8.40
2023-09-28T14:51:36.637Z,8.00
2023-09-28T14:54:04.463Z,9.10
2023-09-28T14:56:32.750Z,7.60
2023-09-28T14:59:00.954Z,8.40
2023-09-28T15:01:30.667Z,8.00
2023-09-28T15:03:58.596Z,10.40
2023-09-28T15:06:26.760Z,13.00
2023-09-28T15:08:54.623Z,10.00
2023-09-28T15:11:22.370Z,7.80
2023-09-28T15:13:50.090Z,10.60
2023-09-28T15:16:17.795Z,9.00
2023-09-28T15:18:45.581Z,6.60
2023-09-28T15:21:13.232Z,7.60
2023-09-28T15:23:41.467Z,9.60
2023-09-28T15:26:10.081Z,7.30
2023-09-28T15:28:39.806Z,7.20
2023-09-28T15:31:07.384Z,7.20
2023-09-28T15:33:37.061Z,9.00
2023-09-28T15:36:07.253Z,7.90
2023-09-28T15:38:34.974Z,8.60
2023-09-28T15:41:04.934Z,9.20
2023-09-28T15:43:32.598Z,9.90
2023-09-28T15:46:00.408Z,9.30
2023-09-28T15:48:28.071Z,11.80
2023-09-28T15:50:55.939Z,9.20
2023-09-28T15:53:23.830Z,9.10
2023-09-28T15:55:51.710Z,8.20
2023-09-28T15:58:19.409Z,8.20
2023-09-28T16:00:48.404Z,15.00
2023-09-28T16:03:16.379Z,10.50
2023-09-28T16:05:44.265Z,11.50
2023-09-28T16:08:12.210Z,9.00
2023-09-28T16:10:39.916Z,8.50
2023-09-28T16:13:08.179Z,11.10
2023-09-28T16:15:36.477Z,9.90
2023-09-28T16:18:05.073Z,13.80
2023-09-28T16:20:32.906Z,15.70
2023-09-28T16:23:00.851Z,17.10
2023-09-28T16:25:29.030Z,24.30
2023-09-28T16:27:57.018Z,30.00
2023-09-28T16:30:26.957Z,12.00
2023-09-28T16:32:54.724Z,11.00
2023-09-28T16:35:22.516Z,13.90
2023-09-28T16:37:50.164Z,17.70
2023-09-28T16:40:18.093Z,12.70
2023-09-28T16:42:45.715Z,11.10
2023-09-28T16:45:13.759Z,10.60
2023-09-28T16:47:41.467Z,9.00
2023-09-28T16:50:09.744Z,11.60
2023-09-28T16:52:37.504Z,10.40
2023-09-28T16:55:05.123Z,10.40
2023-09-28T16:57:32.862Z,11.60
2023-09-28T17:00:00.457Z,9.80
2023-09-28T17:02:28.788Z,10.50
2023-09-28T17:04:56.476Z,11.30
2023-09-28T17:07:24.167Z,14.40
2023-09-28T17:09:51.849Z,10.70
2023-09-28T17:12:26.994Z,15.00
2023-09-28T17:15:05.138Z,13.80
2023-09-28T17:17:32.920Z,14.20
2023-09-28T17:20:00.617Z,12.50
2023-09-28T17:22:28.402Z,12.90
2023-09-28T17:24:56.537Z,13.70
2023-09-28T17:27:25.395Z,14.10
2023-09-28T17:29:53.213Z,16.00
2023-09-28T17:32:20.959Z,15.70
2023-09-28T17:34:48.595Z,15.00
2023-09-28T17:37:17.134Z,16.60
2023-09-28T17:39:44.893Z,17.80
2023-09-28T17:42:12.546Z,25.80
2023-09-28T17:44:40.200Z,32.90
2023-09-28T17:47:10.309Z,38.50
2023-09-28T17:49:41.109Z,42.80
2023-09-28T17:52:08.828Z,43.70
2023-09-28T17:54:38.640Z,33.70
2023-09-28T17:57:06.234Z,33.90
2023-09-28T17:59:33.920Z,36.70
2023-09-28T18:02:02.450Z,62.30
2023-09-28T18:04:30.286Z,113.30
2023-09-28T18:06:58.458Z,94.00
2023-09-28T18:09:26.234Z,78.20
2023-09-28T18:11:53.826Z,48.80
2023-09-28T18:14:21.549Z,42.90
2023-09-28T18:16:50.924Z,44.80
2023-09-28T18:19:19.382Z,29.60
2023-09-28T18:21:47.073Z,25.80
2023-09-28T18:24:14.920Z,24.20
2023-09-28T18:26:43.340Z,24.90
2023-09-28T18:29:13.931Z,23.90
2023-09-28T18:31:42.152Z,22.90
2023-09-28T18:34:10.196Z,27.10
2023-09-28T18:36:38.185Z,26.30
2023-09-28T18:39:14.850Z,30.90
2023-09-28T18:41:49.186Z,27.30
2023-09-28T18:44:17.393Z,28.30
2023-09-28T18:46:45.230Z,25.10
2023-09-28T18:49:13.139Z,24.80
2023-09-28T18:51:40.893Z,22.40
2023-09-28T18:54:08.516Z,28.20
2023-09-28T18:56:36.231Z,24.10
2023-09-28T18:59:06.335Z,24.70
2023-09-28T19:01:35.265Z,28.90
2023-09-28T19:04:02.944Z,25.00
2023-09-28T19:06:31.375Z,26.70
2023-09-28T19:09:00.315Z,29.20
2023-09-28T19:11:28.048Z,23.60
2023-09-28T19:13:56.125Z,25.90
2023-09-28T19:16:23.959Z,27.90
2023-09-28T19:18:51.601Z,26.00
2023-09-28T19:21:19.455Z,24.70
2023-09-28T19:23:47.307Z,29.50
2023-09-28T19:26:15.541Z,23.80
2023-09-28T19:28:44.212Z,25.60
2023-09-28T19:31:11.824Z,25.30
2023-09-28T19:33:40.542Z,25.10
2023-09-28T19:36:09.835Z,24.40
2023-09-28T19:38:37.544Z,21.50
2023-09-28T19:41:05.317Z,22.30
2023-09-28T19:43:33.314Z,23.80
2023-09-28T19:46:00.983Z,21.40
2023-09-28T19:48:28.694Z,18.50
2023-09-28T19:50:56.526Z,21.90
2023-09-28T19:53:24.287Z,25.60
2023-09-28T19:55:51.986Z,25.30
2023-09-28T19:58:20.424Z,23.20
2023-09-28T20:00:48.050Z,20.10
2023-09-28T20:03:15.992Z,19.00
2023-09-28T20:05:44.305Z,20.80
2023-09-28T20:08:11.993Z,21.50
2023-09-28T20:10:39.696Z,19.10
2023-09-28T20:13:07.467Z,21.20
2023-09-28T20:15:35.053Z,19.40
2023-09-28T20:18:02.678Z,21.10
2023-09-28T20:20:30.527Z,20.30
2023-09-28T20:22:58.105Z,19.50
2023-09-28T20:25:26.333Z,20.70
2023-09-28T20:27:55.457Z,17.90
2023-09-28T20:30:23.304Z,20.70
2023-09-28T20:32:51.202Z,18.60
2023-09-28T20:35:19.066Z,19.30
2023-09-28T20:37:46.754Z,20.10
2023-09-28T20:40:14.427Z,19.20
2023-09-28T20:42:42.066Z,21.00
2023-09-28T20:45:11.699Z,18.30
2023-09-28T20:47:39.419Z,19.90
2023-09-28T20:50:08.740Z,20.50
2023-09-28T20:52:36.516Z,19.80
2023-09-28T20:55:05.646Z,18.00
2023-09-28T20:57:33.953Z,16.60
2023-09-28T21:00:07.035Z,17.60
2023-09-28T21:02:35.098Z,17.60
2023-09-28T21:05:02.790Z,17.50
2023-09-28T21:07:31.199Z,18.80
2023-09-28T21:10:01.216Z,17.00
2023-09-28T21:12:28.858Z,16.80
2023-09-28T21:14:56.896Z,20.60
2023-09-28T21:17:25.240Z,18.90
2023-09-28T21:19:52.931Z,17.60
2023-09-28T21:22:20.538Z,17.80
2023-09-28T21:24:48.206Z,18.10
2023-09-28T21:27:15.857Z,17.70
2023-09-28T21:29:43.551Z,14.80
2023-09-28T21:32:11.240Z,17.70
2023-09-28T21:34:38.855Z,19.50
2023-09-28T21:37:06.587Z,18.10
2023-09-28T21:39:34.988Z,17.60
2023-09-28T21:42:02.595Z,18.30
2023-09-28T21:44:30.277Z,18.70
2023-09-28T21:46:58.598Z,16.30
2023-09-28T21:49:26.385Z,17.00
2023-09-28T21:51:54.335Z,18.60
2023-09-28T21:54:22.148Z,16.80
2023-09-28T21:56:49.896Z,17.70
2023-09-28T21:59:17.735Z,15.10
2023-09-28T22:01:45.604Z,16.10
2023-09-28T22:04:14.120Z,15.10
2023-09-28T22:06:43.395Z,13.30
2023-09-28T22:09:11.604Z,15.80
2023-09-28T22:11:39.197Z,17.60
2023-09-28T22:14:06.955Z,14.30
2023-09-28T22:16:34.732Z,13.00
2023-09-28T22:19:02.338Z,13.70
2023-09-28T22:21:29.988Z,13.50
2023-09-28T22:23:57.710Z,14.20
2023-09-28T22:26:25.536Z,13.90
2023-09-28T22:28:53.412Z,13.30
2023-09-28T22:31:21.666Z,16.90
2023-09-28T22:37:17.402Z,17.30
2023-09-28T22:40:05.083Z,15.80
2023-09-28T22:46:04.422Z,17.80
2023-09-28T22:48:34.769Z,17.40
2023-09-28T22:51:02.947Z,19.80
2023-09-28T22:53:33.514Z,18.10
2023-09-28T22:56:01.252Z,17.90
2023-09-28T22:58:31.181Z,19.10
2023-09-28T23:00:59.005Z,17.00
2023-09-28T23:03:27.171Z,20.20
2023-09-28T23:05:55.881Z,22.60
2023-09-28T23:08:23.574Z,19.70
2023-09-28T23:10:52.443Z,18.80
2023-09-28T23:13:20.069Z,20.70
2023-09-28T23:15:47.899Z,18.40
2023-09-28T23:18:16.680Z,17.60
2023-09-28T23:20:44.891Z,18.90
2023-09-28T23:23:12.775Z,15.80
2023-09-28T23:25:40.474Z,16.30
2023-09-28T23:28:10.319Z,15.80
2023-09-28T23:30:39.374Z,15.80
2023-09-28T23:33:08.133Z,15.60
2023-09-28T23:35:36.270Z,15.30
2023-09-28T23:38:04.068Z,18.00
2023-09-28T23:40:31.707Z,16.50
2023-09-28T23:42:59.507Z,16.50
2023-09-28T23:45:29.539Z,19.40
2023-09-28T23:48:01.342Z,17.10
2023-09-28T23:50:29.284Z,16.20
2023-09-28T23:52:57.187Z,16.80
2023-09-28T23:55:25.676Z,15.90
2023-09-28T23:57:53.377Z,15.50
